Jachal, Argentina
Current Conditions -  °F | °C
As of 2:00 PM on Tuesday 21 Oct 2014 (Local Time) from SCSE Reporting Station
Broken Clouds Broken Clouds  
Wind Chill: 64°   Ceiling: 2700
Heat Index: 64°   Visibility: 6mi
Dew Point: 52°   Wind: 8mph
Humidity: 64%   Direction: 260°W
Pressure: 30.03"   Gusts: NA
Location:  30.25°S, 68.75°W
Report Text: SCSE 211700Z 26007KT 9999 BKN027 18/11 Q1017
Loading
Personal Weather Stations






























Interactive Weather Map
Tropical Storm Tracking
New forecast layout! Learn more

10-Day Weather Forecast

Advertisements
Track Severe Weather on mobile